Space — ZCTI8 — position and weather

sailwx.info

Track history (hours):
 
Tides and Currents Weather Stations Pressure Air Temp Water Temp Dewpoint Dewpoint Depression Visibility Wind Speed Wind Dir Waves Ship Positions

Space

Last reported at 2015-Sep-01 05:33 UTC. Time now 2015-Sep-01 05:57 UTC.
Position N 43°16' E 006°40'.

Length 45 m; draft 2.7 m.

Type: Pleasure craft. MMSI: 319917000.

Date/timePositionNaut miles runAvg speedWind from/ knotsBaromVisibWave heightAir tempDewpointWater temp
2015-Sep-01 05:33N 43°16' E 006°40'0 0.0
2015-Sep-01 04:33N 43°16' E 006°40'0 0.0
2015-Sep-01 03:33N 43°16' E 006°40'0 0.0
2015-Sep-01 02:33N 43°16' E 006°40'0 0.0
2015-Sep-01 01:33N 43°16' E 006°40'0 0.0
2015-Sep-01 00:33N 43°16' E 006°40'0 0.0
2015-Aug-31 23:33N 43°16' E 006°40'0 0.0
2015-Aug-31 22:33N 43°16' E 006°40'0 0.0
2015-Aug-31 21:33N 43°16' E 006°40'0 0.0
2015-Aug-31 20:33N 43°16' E 006°40'0 0.0
2015-Aug-31 19:33N 43°16' E 006°40'0 0.0
2015-Aug-31 18:34N 43°16' E 006°40'0 0.0
2015-Aug-31 17:33N 43°16' E 006°40'0 0.0
2015-Aug-31 16:31N 43°16' E 006°40'0 0.0
2015-Aug-31 15:33N 43°16' E 006°40'0 0.0
2015-Aug-31 14:33N 43°16' E 006°40'0 0.0
2015-Aug-31 13:33N 43°16' E 006°40'0 0.0
2015-Aug-31 12:26N 43°16' E 006°40'0 0.0
2015-Aug-31 11:32N 43°16' E 006°40'0 0.0
2015-Aug-31 10:33N 43°16' E 006°40'0 0.0
2015-Aug-31 09:33N 43°16' E 006°40'0 0.0
2015-Aug-31 08:33N 43°16' E 006°40'0 0.0
2015-Aug-31 07:33N 43°16' E 006°40'0 0.0
2015-Aug-31 06:33N 43°16' E 006°40'0 0.0
2015-Aug-31 05:33N 43°16' E 006°40'0 0.0
2015-Aug-31 04:33N 43°16' E 006°40'0 0.0
2015-Aug-31 03:33N 43°16' E 006°40'0 0.0
2015-Aug-31 02:33N 43°16' E 006°40'0 0.0
2015-Aug-31 01:33N 43°16' E 006°40'0 0.0
2015-Aug-31 00:33N 43°16' E 006°40'0 0.0
2015-Aug-30 23:33N 43°16' E 006°40'0 0.0
2015-Aug-30 22:33N 43°16' E 006°40'0 0.0
2015-Aug-30 21:33N 43°16' E 006°40'0 0.0
2015-Aug-30 20:33N 43°16' E 006°40'0 0.0
2015-Aug-30 19:33N 43°16' E 006°40'0 0.0
2015-Aug-30 18:33N 43°16' E 006°40'0 0.0
2015-Aug-30 17:33N 43°16' E 006°40'2 2.2
2015-Aug-30 16:33N 43°17' E 006°43'4 3.3
2015-Aug-30 15:27N 43°14' E 006°40'0 0.0
2015-Aug-30 14:27N 43°14' E 006°40'0 0.0
2015-Aug-30 13:30N 43°14' E 006°40'0 0.0
2015-Aug-30 12:27N 43°14' E 006°40'0 0.0
2015-Aug-30 11:33N 43°14' E 006°40'0 0.0
2015-Aug-30 10:34N 43°14' E 006°40'3 2.5
2015-Aug-30 09:28N 43°16' E 006°40'0 0.0
2015-Aug-30 08:31N 43°16' E 006°40'0 0.0
2015-Aug-30 07:28N 43°16' E 006°40'0 0.0
2015-Aug-30 06:28N 43°16' E 006°40'0 0.0
2015-Aug-30 05:31N 43°16' E 006°40'0 0.0
2015-Aug-30 04:31N 43°16' E 006°40'0 0.0
2015-Aug-30 03:31N 43°16' E 006°40'0 0.0
2015-Aug-30 02:31N 43°16' E 006°40'0 0.0
2015-Aug-30 01:28N 43°16' E 006°40'0 0.0
2015-Aug-30 00:28N 43°16' E 006°40'0 0.0
2015-Aug-29 23:31N 43°16' E 006°40'0 0.0
2015-Aug-29 22:31N 43°16' E 006°40'0 0.0
2015-Aug-29 21:31N 43°16' E 006°40'0 0.0
2015-Aug-29 20:31N 43°16' E 006°40'0 0.0
2015-Aug-29 19:28N 43°16' E 006°40'0 0.0
2015-Aug-29 18:31N 43°16' E 006°40'0 0.0
2015-Aug-29 17:31N 43°16' E 006°40'0 0.0
2015-Aug-29 16:31N 43°16' E 006°40'2 2.3
2015-Aug-29 15:33N 43°16' E 006°43'3 0.9
2015-Aug-29 12:14N 43°14' E 006°40'0 0.0
2015-Aug-29 11:32N 43°14' E 006°40'2 2.4
2015-Aug-29 10:33N 43°16' E 006°40'0 0.0
2015-Aug-29 09:33N 43°16' E 006°40'0 0.0
2015-Aug-29 08:33N 43°16' E 006°40'0 0.0
2015-Aug-29 07:33N 43°16' E 006°40'0 0.0
2015-Aug-29 06:33N 43°16' E 006°40'0 0.0
2015-Aug-29 05:33N 43°16' E 006°40'0 0.0
2015-Aug-29 04:33N 43°16' E 006°40'0 0.0
2015-Aug-29 03:33N 43°16' E 006°40'0 0.0
2015-Aug-29 02:33N 43°16' E 006°40'0 0.0
2015-Aug-29 01:33N 43°16' E 006°40'0 0.0
2015-Aug-29 00:33N 43°16' E 006°40'0 0.0
2015-Aug-28 23:33N 43°16' E 006°40'0 0.0
2015-Aug-28 22:33N 43°16' E 006°40'0 0.0
2015-Aug-28 21:33N 43°16' E 006°40'0 0.0
2015-Aug-28 20:34N 43°16' E 006°40'0 0.0
2015-Aug-28 19:33N 43°16' E 006°40'0 0.0
2015-Aug-28 18:33N 43°16' E 006°40'0 0.5
2015-Aug-28 17:33N 43°17' E 006°40'0 0.0
2015-Aug-28 10:06N 43°17' E 006°40'0 0.3
2015-Aug-28 09:25N 43°16' E 006°40'0 0.0
2015-Aug-28 08:31N 43°16' E 006°40'0 0.0
2015-Aug-28 07:31N 43°16' E 006°40'0 0.0
2015-Aug-28 06:28N 43°16' E 006°40'0 0.0
2015-Aug-28 05:25N 43°16' E 006°40'0 0.0
2015-Aug-28 04:19N 43°16' E 006°40'0 0.0
2015-Aug-28 03:19N 43°16' E 006°40'0 0.0
2015-Aug-28 02:22N 43°16' E 006°40'0 0.0
2015-Aug-28 01:28N 43°16' E 006°40'0 0.0
2015-Aug-28 00:31N 43°16' E 006°40'0 0.0
2015-Aug-27 23:25N 43°16' E 006°40'0 0.0
2015-Aug-27 22:25N 43°16' E 006°40'0 0.0
2015-Aug-27 21:31N 43°16' E 006°40'0 0.0
2015-Aug-27 20:25N 43°16' E 006°40'0 0.0
2015-Aug-27 19:16N 43°16' E 006°40'0 0.0
2015-Aug-27 18:31N 43°16' E 006°40'0 0.0
2015-Aug-27 17:25N 43°16' E 006°40'0 0.0
2015-Aug-27 16:28N 43°16' E 006°40'0 0.0
2015-Aug-27 12:16N 43°16' E 006°40'0 0.1
2015-Aug-27 11:25N 43°16' E 006°40'0 0.0
2015-Aug-27 10:28N 43°16' E 006°40'0 0.0
2015-Aug-27 09:25N 43°16' E 006°40'0 0.0
2015-Aug-27 08:31N 43°16' E 006°40'0 0.0
2015-Aug-27 07:28N 43°16' E 006°40'0 0.0
2015-Aug-27 06:31N 43°16' E 006°40'6 6.3
2015-Aug-27 05:33N 43°13' E 006°47'1110.9
2015-Aug-27 04:33N 43°05' E 006°57'1111.3
2015-Aug-27 03:33N 42°56' E 007°07'1111.3
2015-Aug-27 02:33N 42°48' E 007°17'  
2015-Aug-23 12:20N 41°09' E 009°33'  
Track history (hours):
 
Tides and Currents Weather Stations Pressure Air Temp Water Temp Dewpoint Dewpoint Depression Visibility Wind Speed Wind Dir Waves Ship Positions

Space

Last reported at 2015-Sep-01 05:33 UTC. Time now 2015-Sep-01 05:57 UTC.
Position N 43°16' E 006°40'.

Length 45 m; draft 2.7 m.

Type: Pleasure craft. MMSI: 319917000.

Date/timePositionNaut miles runAvg speedWind from/ knotsBaromVisibWave heightAir tempDewpointWater temp
2015-Sep-01 05:33N 43°16' E 006°40'0 0.0
2015-Sep-01 04:33N 43°16' E 006°40'0 0.0
2015-Sep-01 03:33N 43°16' E 006°40'0 0.0
2015-Sep-01 02:33N 43°16' E 006°40'0 0.0
2015-Sep-01 01:33N 43°16' E 006°40'0 0.0
2015-Sep-01 00:33N 43°16' E 006°40'0 0.0
2015-Aug-31 23:33N 43°16' E 006°40'0 0.0
2015-Aug-31 22:33N 43°16' E 006°40'0 0.0
2015-Aug-31 21:33N 43°16' E 006°40'0 0.0
2015-Aug-31 20:33N 43°16' E 006°40'0 0.0
2015-Aug-31 19:33N 43°16' E 006°40'0 0.0
2015-Aug-31 18:34N 43°16' E 006°40'0 0.0
2015-Aug-31 17:33N 43°16' E 006°40'0 0.0
2015-Aug-31 16:31N 43°16' E 006°40'0 0.0
2015-Aug-31 15:33N 43°16' E 006°40'0 0.0
2015-Aug-31 14:33N 43°16' E 006°40'0 0.0
2015-Aug-31 13:33N 43°16' E 006°40'0 0.0
2015-Aug-31 12:26N 43°16' E 006°40'0 0.0
2015-Aug-31 11:32N 43°16' E 006°40'0 0.0
2015-Aug-31 10:33N 43°16' E 006°40'0 0.0
2015-Aug-31 09:33N 43°16' E 006°40'0 0.0
2015-Aug-31 08:33N 43°16' E 006°40'0 0.0
2015-Aug-31 07:33N 43°16' E 006°40'0 0.0
2015-Aug-31 06:33N 43°16' E 006°40'0 0.0
2015-Aug-31 05:33N 43°16' E 006°40'0 0.0
2015-Aug-31 04:33N 43°16' E 006°40'0 0.0
2015-Aug-31 03:33N 43°16' E 006°40'0 0.0
2015-Aug-31 02:33N 43°16' E 006°40'0 0.0
2015-Aug-31 01:33N 43°16' E 006°40'0 0.0
2015-Aug-31 00:33N 43°16' E 006°40'0 0.0
2015-Aug-30 23:33N 43°16' E 006°40'0 0.0
2015-Aug-30 22:33N 43°16' E 006°40'0 0.0
2015-Aug-30 21:33N 43°16' E 006°40'0 0.0
2015-Aug-30 20:33N 43°16' E 006°40'0 0.0
2015-Aug-30 19:33N 43°16' E 006°40'0 0.0
2015-Aug-30 18:33N 43°16' E 006°40'0 0.0
2015-Aug-30 17:33N 43°16' E 006°40'2 2.2
2015-Aug-30 16:33N 43°17' E 006°43'4 3.3
2015-Aug-30 15:27N 43°14' E 006°40'0 0.0
2015-Aug-30 14:27N 43°14' E 006°40'0 0.0
2015-Aug-30 13:30N 43°14' E 006°40'0 0.0
2015-Aug-30 12:27N 43°14' E 006°40'0 0.0
2015-Aug-30 11:33N 43°14' E 006°40'0 0.0
2015-Aug-30 10:34N 43°14' E 006°40'3 2.5
2015-Aug-30 09:28N 43°16' E 006°40'0 0.0
2015-Aug-30 08:31N 43°16' E 006°40'0 0.0
2015-Aug-30 07:28N 43°16' E 006°40'0 0.0
2015-Aug-30 06:28N 43°16' E 006°40'0 0.0
2015-Aug-30 05:31N 43°16' E 006°40'0 0.0
2015-Aug-30 04:31N 43°16' E 006°40'0 0.0
2015-Aug-30 03:31N 43°16' E 006°40'0 0.0
2015-Aug-30 02:31N 43°16' E 006°40'0 0.0
2015-Aug-30 01:28N 43°16' E 006°40'0 0.0
2015-Aug-30 00:28N 43°16' E 006°40'0 0.0
2015-Aug-29 23:31N 43°16' E 006°40'0 0.0
2015-Aug-29 22:31N 43°16' E 006°40'0 0.0
2015-Aug-29 21:31N 43°16' E 006°40'0 0.0
2015-Aug-29 20:31N 43°16' E 006°40'0 0.0
2015-Aug-29 19:28N 43°16' E 006°40'0 0.0
2015-Aug-29 18:31N 43°16' E 006°40'0 0.0
2015-Aug-29 17:31N 43°16' E 006°40'0 0.0
2015-Aug-29 16:31N 43°16' E 006°40'2 2.3
2015-Aug-29 15:33N 43°16' E 006°43'3 0.9
2015-Aug-29 12:14N 43°14' E 006°40'0 0.0
2015-Aug-29 11:32N 43°14' E 006°40'2 2.4
2015-Aug-29 10:33N 43°16' E 006°40'0 0.0
2015-Aug-29 09:33N 43°16' E 006°40'0 0.0
2015-Aug-29 08:33N 43°16' E 006°40'0 0.0
2015-Aug-29 07:33N 43°16' E 006°40'0 0.0
2015-Aug-29 06:33N 43°16' E 006°40'0 0.0
2015-Aug-29 05:33N 43°16' E 006°40'0 0.0
2015-Aug-29 04:33N 43°16' E 006°40'0 0.0
2015-Aug-29 03:33N 43°16' E 006°40'0 0.0
2015-Aug-29 02:33N 43°16' E 006°40'0 0.0
2015-Aug-29 01:33N 43°16' E 006°40'0 0.0
2015-Aug-29 00:33N 43°16' E 006°40'0 0.0
2015-Aug-28 23:33N 43°16' E 006°40'0 0.0
2015-Aug-28 22:33N 43°16' E 006°40'0 0.0
2015-Aug-28 21:33N 43°16' E 006°40'0 0.0
2015-Aug-28 20:34N 43°16' E 006°40'0 0.0
2015-Aug-28 19:33N 43°16' E 006°40'0 0.0
2015-Aug-28 18:33N 43°16' E 006°40'0 0.5
2015-Aug-28 17:33N 43°17' E 006°40'0 0.0
2015-Aug-28 10:06N 43°17' E 006°40'0 0.3
2015-Aug-28 09:25N 43°16' E 006°40'0 0.0
2015-Aug-28 08:31N 43°16' E 006°40'0 0.0
2015-Aug-28 07:31N 43°16' E 006°40'0 0.0
2015-Aug-28 06:28N 43°16' E 006°40'0 0.0
2015-Aug-28 05:25N 43°16' E 006°40'0 0.0
2015-Aug-28 04:19N 43°16' E 006°40'0 0.0
2015-Aug-28 03:19N 43°16' E 006°40'0 0.0
2015-Aug-28 02:22N 43°16' E 006°40'0 0.0
2015-Aug-28 01:28N 43°16' E 006°40'0 0.0
2015-Aug-28 00:31N 43°16' E 006°40'0 0.0
2015-Aug-27 23:25N 43°16' E 006°40'0 0.0
2015-Aug-27 22:25N 43°16' E 006°40'0 0.0
2015-Aug-27 21:31N 43°16' E 006°40'0 0.0
2015-Aug-27 20:25N 43°16' E 006°40'0 0.0
2015-Aug-27 19:16N 43°16' E 006°40'0 0.0
2015-Aug-27 18:31N 43°16' E 006°40'0 0.0
2015-Aug-27 17:25N 43°16' E 006°40'0 0.0
2015-Aug-27 16:28N 43°16' E 006°40'0 0.0
2015-Aug-27 12:16N 43°16' E 006°40'0 0.1
2015-Aug-27 11:25N 43°16' E 006°40'0 0.0
2015-Aug-27 10:28N 43°16' E 006°40'0 0.0
2015-Aug-27 09:25N 43°16' E 006°40'0 0.0
2015-Aug-27 08:31N 43°16' E 006°40'0 0.0
2015-Aug-27 07:28N 43°16' E 006°40'0 0.0
2015-Aug-27 06:31N 43°16' E 006°40'6 6.3
2015-Aug-27 05:33N 43°13' E 006°47'1110.9
2015-Aug-27 04:33N 43°05' E 006°57'1111.3
2015-Aug-27 03:33N 42°56' E 007°07'1111.3
2015-Aug-27 02:33N 42°48' E 007°17'  
2015-Aug-23 12:20N 41°09' E 009°33'  

Dump ship's entire track history